Terminal Aerodrome Forecast
Issued by NWS

Home | Current Version | Previous Version | Text Only | Print | Product List | Glossary On
Versions: 1 2 3 4 5 6 7 8 9 10 11 12 13 14 15 16 17 18 19 20 21 22 23 24 25 26 27 28 29
000
FTUS45 KRIW 271720
TAFPNA
TAF
KPNA 271720Z 2718/2818 29008KT P6SM SCT100
      TEMPO 2718/2720 32012G18KT
     FM272000 30014G22KT P6SM VCTS SCT060CB BKN100
     FM280300 29007KT P6SM SCT110
      AMD LTD TO CLD VIS AND WIND=

USA.gov is the U.S. government's official web portal to all federal, state and local government web resources and services.